MMLM/LMM METAR and TAF weather

Enter ICAO airport designator
Station Type Date Time Source
MMLM METAR 2021/10/22 18:40 UTC NOAA

MMLM 221840Z 31008KT 10SM SKC 29/21 A2989 RMK HZY


Station Type Date Time Source
MMLM Decoded METAR 2021/10/22 18:40 UTC NOAA

Los Mochis Airport, Mexico (MMLM) 25-41N 109-05W
Oct 22, 2021 - 02:40 PM EDT / 2021.10.22 1840 UTC
Wind: from the NW (310 degrees) at 9 MPH (8 KT):0
Visibility: 10 mile(s):0
Sky conditions: clear
Temperature: 84 F (29 C)
Dew Point: 69 F (21 C)
Relative Humidity: 62%
Pressure (altimeter): 29.89 in. Hg (1012 hPa)
ob: MMLM 221840Z 31008KT 10SM SKC 29/21 A2989 RMK HZY
cycle: 18

Station Type Date Time Source
MMLM TAF 2021/10/22 18:53 UTC NOAA

TAF MMLM 221648Z 2218/2318 32010KT P6SM SKC
BECMG 2300/2301 00000KT
FM231200 00000KT 2SM BR OVC008
FM231500 00000KT 4SM HZ SCT010

Example: see airport list